createdAt,value
2023-01-07T00:02:00.746Z,10.30
2023-01-07T00:07:02.532Z,10.30
2023-01-07T00:12:04.328Z,10.30
2023-01-07T00:17:06.043Z,10.40
2023-01-07T00:22:07.716Z,10.20
2023-01-07T00:27:09.463Z,10.20
2023-01-07T00:32:11.191Z,10.30
2023-01-07T00:37:31.431Z,10.30
2023-01-07T00:42:52.072Z,10.30
2023-01-07T00:47:53.809Z,10.30
2023-01-07T00:52:55.606Z,10.30
2023-01-07T00:57:57.605Z,10.30
2023-01-07T01:02:59.898Z,10.30
2023-01-07T01:08:01.621Z,10.30
2023-01-07T01:13:03.541Z,10.40
2023-01-07T01:18:05.343Z,10.30
2023-01-07T01:23:07.290Z,10.20
2023-01-07T01:28:09.022Z,10.30
2023-01-07T01:33:10.791Z,10.20
2023-01-07T01:38:13.864Z,10.20
2023-01-07T01:43:45.856Z,10.20
2023-01-07T01:48:56.119Z,10.10
2023-01-07T01:53:58.270Z,10.10
2023-01-07T01:59:06.697Z,10.20
2023-01-07T02:04:17.908Z,10.20
2023-01-07T02:09:19.740Z,10.10
2023-01-07T02:14:45.911Z,10.10
2023-01-07T02:20:00.846Z,10.10
2023-01-07T02:25:32.721Z,10.10
2023-01-07T02:31:00.819Z,10.20
2023-01-07T02:36:11.808Z,10.10
2023-01-07T02:41:47.052Z,10.00
2023-01-07T02:46:58.668Z,10.10
2023-01-07T02:52:23.379Z,10.20
2023-01-07T02:57:43.758Z,10.20
2023-01-07T03:03:21.900Z,10.20
2023-01-07T03:09:02.367Z,10.00
2023-01-07T03:14:20.676Z,10.00
2023-01-07T03:19:32.746Z,10.00
2023-01-07T03:24:35.439Z,9.90
2023-01-07T03:29:37.337Z,9.90
2023-01-07T03:34:42.062Z,9.80
2023-01-07T03:39:45.681Z,9.70
2023-01-07T03:44:47.593Z,9.70
2023-01-07T03:49:49.536Z,9.60
2023-01-07T03:54:51.412Z,9.70
2023-01-07T03:59:53.461Z,9.60
2023-01-07T04:04:55.268Z,9.50
2023-01-07T04:09:57.212Z,9.30
2023-01-07T04:14:59.669Z,9.30
2023-01-07T04:20:02.032Z,9.20
2023-01-07T04:25:04.431Z,9.30
2023-01-07T04:30:07.402Z,9.30
2023-01-07T04:35:09.376Z,9.40
2023-01-07T04:40:11.583Z,9.30
2023-01-07T04:45:14.158Z,9.40
2023-01-07T04:50:16.451Z,9.40
2023-01-07T04:55:19.715Z,9.40
2023-01-07T05:00:23.172Z,9.40
2023-01-07T05:05:27.422Z,9.60
2023-01-07T05:10:29.260Z,9.50
2023-01-07T05:15:32.006Z,9.50
2023-01-07T05:20:34.486Z,9.40
2023-01-07T05:25:36.437Z,9.10
2023-01-07T05:30:39.387Z,9.00
2023-01-07T05:35:41.584Z,9.10
2023-01-07T05:40:43.619Z,9.00
2023-01-07T05:45:47.053Z,9.00
2023-01-07T05:50:48.798Z,8.90
2023-01-07T05:55:56.641Z,9.00
2023-01-07T06:00:58.459Z,8.90
2023-01-07T06:06:06.988Z,8.80
2023-01-07T06:11:08.999Z,9.00
2023-01-07T06:16:15.005Z,9.00
2023-01-07T06:21:18.230Z,8.90
2023-01-07T06:26:19.996Z,8.90
2023-01-07T06:31:21.774Z,8.80
2023-01-07T06:36:23.527Z,8.80
2023-01-07T06:41:25.232Z,9.00
2023-01-07T06:46:27.009Z,9.10
2023-01-07T06:51:30.610Z,9.10
2023-01-07T06:56:32.321Z,9.10
2023-01-07T07:01:34.191Z,9.10
2023-01-07T07:06:36.154Z,9.10
2023-01-07T07:11:38.108Z,9.30
2023-01-07T07:16:39.903Z,9.20
2023-01-07T07:21:41.989Z,9.10
2023-01-07T07:26:43.834Z,9.20
2023-01-07T07:31:45.644Z,9.30
2023-01-07T07:36:47.368Z,9.20
2023-01-07T07:41:49.147Z,9.10
2023-01-07T07:46:52.810Z,9.30
2023-01-07T07:51:55.405Z,9.40
2023-01-07T07:56:58.347Z,9.30
2023-01-07T08:02:00.236Z,9.40
2023-01-07T08:07:02.255Z,9.60
2023-01-07T08:12:05.096Z,9.70
2023-01-07T08:17:06.871Z,9.90
2023-01-07T08:22:08.606Z,10.20
2023-01-07T08:27:10.318Z,10.40
2023-01-07T08:32:12.054Z,10.40
2023-01-07T08:37:14.663Z,10.50
2023-01-07T08:42:16.368Z,10.50
2023-01-07T08:47:18.107Z,10.50
2023-01-07T08:52:21.540Z,10.60
2023-01-07T08:57:23.263Z,10.70
2023-01-07T09:02:25.130Z,10.50
2023-01-07T09:07:26.859Z,10.30
2023-01-07T09:12:28.617Z,10.30
2023-01-07T09:17:30.418Z,10.20
2023-01-07T09:22:33.742Z,10.00
2023-01-07T09:27:35.756Z,10.00
2023-01-07T09:32:37.496Z,10.10
2023-01-07T09:37:39.283Z,10.00
2023-01-07T09:43:08.849Z,10.00
2023-01-07T09:48:23.375Z,10.20
2023-01-07T09:53:32.605Z,10.10
2023-01-07T09:58:37.036Z,10.10
2023-01-07T10:03:54.682Z,10.20
2023-01-07T10:09:16.675Z,10.40
2023-01-07T10:14:21.377Z,10.30
2023-01-07T10:19:51.671Z,10.30
2023-01-07T10:24:59.084Z,10.40
2023-01-07T10:30:04.166Z,10.40
2023-01-07T10:35:19.211Z,10.50
2023-01-07T10:40:38.548Z,10.60
2023-01-07T10:45:57.504Z,10.70
2023-01-07T10:51:11.226Z,10.70
2023-01-07T10:56:30.008Z,10.80
2023-01-07T11:01:41.157Z,11.00
2023-01-07T11:07:04.232Z,10.90
2023-01-07T11:12:31.909Z,11.10
2023-01-07T11:17:49.485Z,11.00
2023-01-07T11:22:51.184Z,11.20
2023-01-07T11:27:52.913Z,11.20
2023-01-07T11:33:00.044Z,11.20
2023-01-07T11:38:01.888Z,11.20
2023-01-07T11:43:15.604Z,11.10
2023-01-07T11:48:24.872Z,11.20
2023-01-07T11:53:38.557Z,11.20
2023-01-07T11:58:45.374Z,11.20
2023-01-07T12:04:13.722Z,11.10
2023-01-07T12:09:35.767Z,11.20
2023-01-07T12:14:38.805Z,11.20
2023-01-07T12:20:18.548Z,11.00
2023-01-07T12:26:02.217Z,11.10
2023-01-07T12:31:31.076Z,11.10
2023-01-07T12:36:54.595Z,11.10
2023-01-07T12:42:12.350Z,11.10
2023-01-07T12:47:31.402Z,11.10
2023-01-07T12:52:50.174Z,11.10
2023-01-07T12:58:10.816Z,10.90
2023-01-07T13:03:32.821Z,10.90
2023-01-07T13:08:46.079Z,10.90
2023-01-07T13:13:52.372Z,11.00
2023-01-07T13:18:54.107Z,10.90
2023-01-07T13:24:54.667Z,11.00
2023-01-07T13:30:15.950Z,11.00
2023-01-07T13:35:34.923Z,11.00
2023-01-07T13:41:05.484Z,11.00
2023-01-07T13:46:15.040Z,11.00
2023-01-07T13:51:26.066Z,11.00
2023-01-07T13:56:27.733Z,10.90
2023-01-07T14:01:33.847Z,10.90
2023-01-07T14:06:47.848Z,10.90
2023-01-07T14:12:00.146Z,10.90
2023-01-07T14:17:32.768Z,10.80
2023-01-07T14:22:45.253Z,10.70
2023-01-07T14:28:21.460Z,10.60
2023-01-07T14:33:34.105Z,10.60
2023-01-07T14:38:35.753Z,10.50
2023-01-07T14:43:43.577Z,10.50
2023-01-07T14:49:05.419Z,10.50
2023-01-07T14:54:34.945Z,10.40
2023-01-07T14:59:58.655Z,10.40
2023-01-07T15:05:19.510Z,10.30
2023-01-07T15:10:44.257Z,10.30
2023-01-07T15:16:04.203Z,10.30
2023-01-07T15:21:21.104Z,10.10
2023-01-07T15:26:32.263Z,9.90
2023-01-07T15:31:48.239Z,9.90
2023-01-07T15:36:53.442Z,9.70
2023-01-07T15:41:56.660Z,9.80
2023-01-07T15:46:58.434Z,9.60
2023-01-07T15:52:01.628Z,9.60
2023-01-07T15:57:15.670Z,9.50
2023-01-07T16:02:34.363Z,9.30
2023-01-07T16:07:50.679Z,9.10
2023-01-07T16:12:57.835Z,9.00
2023-01-07T16:18:18.913Z,9.00
2023-01-07T16:23:28.323Z,8.80
2023-01-07T16:28:40.794Z,8.40
2023-01-07T16:33:43.593Z,8.00
2023-01-07T16:38:49.065Z,7.70
2023-01-07T16:43:56.160Z,7.50
2023-01-07T16:49:26.617Z,7.50
2023-01-07T16:54:28.708Z,7.30
2023-01-07T16:59:33.309Z,7.30
2023-01-07T17:04:34.997Z,7.30
2023-01-07T17:09:39.742Z,7.10
2023-01-07T17:14:41.407Z,7.20
2023-01-07T17:20:19.733Z,7.30
2023-01-07T17:25:24.555Z,7.30
2023-01-07T17:30:35.792Z,7.30
2023-01-07T17:35:44.064Z,7.40
2023-01-07T17:40:46.273Z,7.60
2023-01-07T17:45:48.001Z,7.70
2023-01-07T17:50:49.987Z,7.70
2023-01-07T17:55:52.220Z,7.70
2023-01-07T18:00:54.522Z,7.90
2023-01-07T18:05:56.368Z,7.90
2023-01-07T18:11:16.682Z,7.80
2023-01-07T18:16:18.376Z,7.60
2023-01-07T18:21:20.157Z,7.80
2023-01-07T18:26:22.165Z,7.90
2023-01-07T18:31:23.921Z,8.10
2023-01-07T18:36:25.664Z,8.10
2023-01-07T18:41:27.393Z,8.30
2023-01-07T18:46:35.414Z,8.20
2023-01-07T18:51:37.130Z,8.30
2023-01-07T18:56:38.911Z,8.20
2023-01-07T19:01:40.825Z,8.10
2023-01-07T19:06:42.624Z,8.00
2023-01-07T19:11:44.371Z,8.00
2023-01-07T19:16:46.164Z,7.90
2023-01-07T19:21:49.344Z,7.90
2023-01-07T19:26:51.440Z,7.90
2023-01-07T19:31:53.353Z,8.00
2023-01-07T19:36:55.153Z,7.70
2023-01-07T19:41:56.882Z,7.70
2023-01-07T19:46:58.585Z,7.80
2023-01-07T19:52:00.543Z,7.70
2023-01-07T19:57:02.273Z,7.70
2023-01-07T20:02:04.531Z,7.70
2023-01-07T20:07:06.425Z,7.50
2023-01-07T20:12:08.294Z,7.50
2023-01-07T20:17:10.014Z,7.20
2023-01-07T20:22:11.982Z,6.90
2023-01-07T20:27:13.716Z,6.90
2023-01-07T20:32:15.430Z,6.70
2023-01-07T20:37:17.949Z,6.90
2023-01-07T20:42:19.771Z,7.10
2023-01-07T20:47:21.481Z,7.10
2023-01-07T20:52:23.198Z,6.70
2023-01-07T20:57:24.920Z,6.70
2023-01-07T21:02:26.827Z,7.30
2023-01-07T21:07:28.907Z,7.50
2023-01-07T21:12:30.957Z,7.30
2023-01-07T21:17:32.654Z,7.40
2023-01-07T21:22:37.858Z,7.60
2023-01-07T21:27:39.957Z,7.50
2023-01-07T21:32:41.880Z,7.40
2023-01-07T21:37:43.604Z,7.20
2023-01-07T21:42:45.394Z,7.10
2023-01-07T21:47:47.233Z,6.70
2023-01-07T21:52:48.957Z,6.60
2023-01-07T21:57:50.724Z,6.50
2023-01-07T22:02:52.406Z,6.30
2023-01-07T22:07:54.089Z,6.00
2023-01-07T22:12:56.020Z,5.80
2023-01-07T22:17:57.745Z,5.70
2023-01-07T22:22:59.491Z,5.70
2023-01-07T22:28:04.577Z,5.90
2023-01-07T22:33:06.275Z,6.10
2023-01-07T22:38:08.558Z,6.50
2023-01-07T22:43:14.190Z,6.90
2023-01-07T22:48:19.353Z,7.30
2023-01-07T22:53:21.889Z,7.40
2023-01-07T22:58:23.595Z,7.50
2023-01-07T23:03:25.996Z,7.60
2023-01-07T23:08:27.836Z,7.50
2023-01-07T23:13:29.828Z,7.60
2023-01-07T23:18:31.654Z,7.50
2023-01-07T23:23:33.361Z,7.50
2023-01-07T23:28:35.080Z,7.30
2023-01-07T23:33:36.800Z,7.40
2023-01-07T23:38:38.534Z,7.30
2023-01-07T23:43:40.243Z,7.30
2023-01-07T23:48:41.982Z,7.20
2023-01-07T23:53:45.023Z,7.10
2023-01-07T23:58:47.954Z,6.80
